Time;durP1;ratioP1;P1;durP2;ratioP2;P2;SDS_P1;SDS_P2;PMS_P1;PMS_P2;Temp;Humidity;BMP_temperature;BMP_pressure;BME280_temperature;BME280_humidity;BME280_pressure;Samples;Min_cycle;Max_cycle;Signal;HPM_P1;HPM_P2
2023/06/06 04:06:15;;;;;;;3.90;2.17;;;13.80;99.90;;;;;;5116271;23;20568;-63
2023/06/06 04:08:41;;;;;;;2.10;2.00;;;13.90;99.90;;;;;;5017147;28;20459;-63
2023/06/06 04:11:06;;;;;;;1.87;1.77;;;14.00;99.90;;;;;;5017309;28;20260;-63
2023/06/06 04:13:32;;;;;;;3.10;2.90;;;14.00;99.90;;;;;;5016868;28;20400;-63
2023/06/06 04:15:58;;;;;;;2.27;2.07;;;14.10;99.90;;;;;;5017125;28;20264;-63
2023/06/06 04:18:23;;;;;;;2.03;1.93;;;14.20;99.90;;;;;;5017182;28;20621;-64
2023/06/06 04:20:52;;;;;;;2.70;2.50;;;14.30;99.90;;;;;;5017158;28;20171;-64
2023/06/06 04:23:18;;;;;;;2.33;2.13;;;14.50;99.90;;;;;;5016809;28;20170;-64
2023/06/06 04:25:43;;;;;;;2.47;2.27;;;14.60;99.90;;;;;;5016863;28;21023;-63
2023/06/06 04:28:09;;;;;;;1.90;1.80;;;14.80;99.90;;;;;;5017177;28;20177;-63
2023/06/06 04:30:35;;;;;;;3.30;2.83;;;14.90;99.90;;;;;;5016755;28;20175;-64
2023/06/06 04:33:00;;;;;;;2.07;1.97;;;15.00;99.90;;;;;;5016897;28;20663;-64
2023/06/06 04:35:26;;;;;;;3.00;2.80;;;15.20;99.90;;;;;;5015394;28;20730;-64
2023/06/06 04:37:53;;;;;;;2.90;2.43;;;15.40;99.90;;;;;;5016659;28;20206;-63
2023/06/06 04:40:21;;;;;;;2.63;2.17;;;15.50;99.90;;;;;;4998923;28;20417;-64
2023/06/06 04:42:47;;;;;;;1.87;1.70;;;15.70;99.90;;;;;;5016712;28;20418;-64
2023/06/06 04:45:15;;;;;;;1.97;1.77;;;15.80;99.90;;;;;;5016108;28;20432;-63
2023/06/06 04:47:44;;;;;;;3.90;2.40;;;15.90;99.90;;;;;;5016587;28;20413;-64
2023/06/06 04:50:10;;;;;;;3.43;2.57;;;15.90;99.90;;;;;;5016451;28;20425;-64
2023/06/06 04:52:36;;;;;;;2.37;2.17;;;15.90;99.90;;;;;;5016517;28;20937;-63
2023/06/06 04:55:03;;;;;;;4.17;2.50;;;16.00;99.90;;;;;;5016149;28;20429;-63
2023/06/06 04:57:29;;;;;;;3.57;2.37;;;16.00;99.90;;;;;;5016114;28;20205;-63
2023/06/06 04:59:56;;;;;;;2.37;2.27;;;16.10;99.90;;;;;;5016401;28;20560;-63
2023/06/06 05:02:23;;;;;;;2.30;2.20;;;16.10;99.90;;;;;;5016340;28;20438;-63
2023/06/06 05:04:53;;;;;;;2.53;2.33;;;16.20;99.90;;;;;;5015813;28;20421;-63
2023/06/06 05:07:23;;;;;;;2.97;2.67;;;16.20;99.90;;;;;;5015861;28;20434;-63
2023/06/06 05:09:48;;;;;;;2.43;2.33;;;16.30;99.90;;;;;;5015092;28;20471;-63
2023/06/06 05:12:14;;;;;;;2.43;2.23;;;16.40;99.90;;;;;;5016129;28;20428;-63
2023/06/06 05:14:40;;;;;;;2.50;2.20;;;16.50;99.90;;;;;;5015591;28;20581;-63
2023/06/06 05:17:06;;;;;;;5.37;2.20;;;16.40;99.90;;;;;;5015785;28;20206;-63
2023/06/06 05:19:31;;;;;;;2.27;2.17;;;16.40;99.90;;;;;;5015886;28;20175;-62
2023/06/06 05:21:57;;;;;;;2.70;2.50;;;16.30;99.90;;;;;;5016031;28;20819;-63
2023/06/06 05:24:22;;;;;;;3.70;2.53;;;16.30;99.90;;;;;;5015435;28;20197;-63
2023/06/06 05:26:48;;;;;;;2.23;2.13;;;16.30;99.90;;;;;;5015811;28;20638;-63
2023/06/06 05:29:14;;;;;;;2.40;2.20;;;16.40;99.90;;;;;;4998139;28;20183;-63
2023/06/06 05:31:39;;;;;;;3.70;3.07;;;16.70;99.90;;;;;;5015562;28;20199;-63
2023/06/06 05:34:05;;;;;;;2.30;2.17;;;16.80;99.90;;;;;;5015148;28;20188;-63
2023/06/06 05:36:30;;;;;;;2.27;1.97;;;17.20;99.90;;;;;;5015417;28;20261;-63
2023/06/06 05:38:56;;;;;;;3.10;2.53;;;17.50;99.90;;;;;;5015602;28;20501;-63
2023/06/06 05:41:22;;;;;;;2.17;2.07;;;18.00;99.90;;;;;;5015552;28;20214;-63
2023/06/06 05:43:48;;;;;;;2.60;2.40;;;18.30;99.90;;;;;;5015261;28;20176;-63
2023/06/06 05:46:14;;;;;;;2.40;2.20;;;18.40;99.90;;;;;;5015382;28;20434;-63
2023/06/06 05:48:40;;;;;;;2.00;1.90;;;18.40;99.90;;;;;;5015377;28;20493;-63
2023/06/06 05:51:07;;;;;;;2.33;2.17;;;18.30;99.90;;;;;;5015025;28;20900;-63
2023/06/06 05:53:33;;;;;;;4.00;3.10;;;18.20;99.90;;;;;;5014838;28;20453;-63
2023/06/06 05:55:58;;;;;;;2.03;1.93;;;18.20;99.90;;;;;;5015278;28;20868;-63
2023/06/06 05:58:24;;;;;;;3.60;3.00;;;18.10;99.90;;;;;;5015163;28;20221;-63
2023/06/06 06:00:50;;;;;;;2.53;2.33;;;18.10;99.90;;;;;;4997661;28;20294;-63
2023/06/06 06:03:15;;;;;;;4.60;3.43;;;18.10;99.90;;;;;;5015329;28;20171;-63
2023/06/06 06:05:41;;;;;;;2.20;2.00;;;18.10;99.90;;;;;;5015109;28;20211;-63
2023/06/06 06:08:07;;;;;;;4.90;2.40;;;18.20;99.90;;;;;;5015427;28;20533;-63
2023/06/06 06:10:35;;;;;;;2.43;2.23;;;18.20;99.90;;;;;;5015008;28;20186;-63
2023/06/06 06:13:02;;;;;;;2.70;2.50;;;18.40;99.90;;;;;;5015019;28;20472;-63
2023/06/06 06:15:32;;;;;;;2.30;2.20;;;18.60;99.90;;;;;;5014374;28;20860;-62
2023/06/06 06:17:58;;;;;;;1.90;1.80;;;18.60;99.90;;;;;;5014558;28;20508;-62
2023/06/06 06:20:24;;;;;;;3.20;2.50;;;18.70;99.90;;;;;;5014388;28;20923;-64
2023/06/06 06:22:49;;;;;;;1.63;1.53;;;18.90;99.90;;;;;;5014738;28;20178;-64
2023/06/06 06:25:19;;;;;;;2.80;2.60;;;19.00;99.90;;;;;;5014200;28;20242;-64
2023/06/06 06:27:46;;;;;;;1.83;1.70;;;19.00;99.90;;;;;;5014660;28;20225;-64
2023/06/06 06:30:13;;;;;;;2.23;2.07;;;19.10;99.90;;;;;;5014407;28;20882;-64
2023/06/06 06:32:41;;;;;;;2.93;2.17;;;19.20;99.90;;;;;;4997114;28;20406;-64
2023/06/06 06:35:08;;;;;;;3.17;2.90;;;19.30;99.90;;;;;;5014187;28;20448;-64
2023/06/06 06:37:37;;;;;;;2.07;1.93;;;19.40;99.90;;;;;;5014469;28;20457;-64
2023/06/06 06:40:06;;;;;;;3.03;2.67;;;19.50;99.90;;;;;;4996602;28;20476;-64
2023/06/06 06:42:32;;;;;;;1.97;1.87;;;19.60;99.90;;;;;;5014494;28;20406;-64
2023/06/06 06:44:58;;;;;;;2.47;2.37;;;19.60;99.90;;;;;;5013863;28;20441;-64
2023/06/06 06:47:23;;;;;;;2.70;2.50;;;19.60;99.90;;;;;;5014376;28;20667;-64
2023/06/06 06:49:49;;;;;;;2.77;2.57;;;19.70;99.90;;;;;;5014207;28;20197;-64
2023/06/06 06:52:17;;;;;;;2.10;1.73;;;19.80;99.90;;;;;;5014258;28;20244;-62
2023/06/06 06:54:52;;;;;;;1.70;1.60;;;19.80;99.90;;;;;;5013692;28;20207;-64
2023/06/06 06:57:19;;;;;;;3.20;2.83;;;20.10;99.20;;;;;;5013969;28;20460;-64
2023/06/06 06:59:48;;;;;;;2.13;1.97;;;20.20;98.80;;;;;;5013786;28;20440;-64
2023/06/06 07:02:14;;;;;;;3.67;2.27;;;20.20;98.20;;;;;;5014143;28;20472;-64
2023/06/06 07:04:39;;;;;;;2.07;1.97;;;20.20;97.90;;;;;;5013735;28;20404;-64
2023/06/06 07:07:08;;;;;;;2.10;2.00;;;20.20;97.80;;;;;;5013971;28;20637;-64
2023/06/06 07:09:33;;;;;;;1.93;1.83;;;20.10;98.20;;;;;;5013961;28;20186;-63
2023/06/06 07:11:59;;;;;;;2.60;2.40;;;20.00;98.10;;;;;;5013974;28;20483;-64
2023/06/06 07:14:29;;;;;;;2.70;2.50;;;20.10;97.80;;;;;;5012938;28;20198;-63
2023/06/06 07:16:55;;;;;;;3.40;2.03;;;20.20;97.90;;;;;;5013562;28;20203;-64
2023/06/06 07:19:21;;;;;;;2.13;1.90;;;20.40;97.90;;;;;;5013752;28;20406;-63
2023/06/06 07:21:47;;;;;;;2.00;1.90;;;20.70;97.50;;;;;;5013698;28;20568;-64
2023/06/06 07:24:12;;;;;;;2.13;2.03;;;20.90;97.40;;;;;;5011845;28;20197;-64
2023/06/06 07:26:38;;;;;;;1.70;1.60;;;21.20;96.70;;;;;;5013132;28;20440;-64
2023/06/06 07:29:04;;;;;;;2.23;2.10;;;21.70;96.20;;;;;;5013882;28;20175;-64
2023/06/06 07:31:30;;;;;;;2.27;2.07;;;22.30;95.10;;;;;;5013252;28;20175;-65
2023/06/06 07:33:55;;;;;;;2.40;2.20;;;22.80;94.10;;;;;;5012983;28;20218;-65
2023/06/06 07:36:21;;;;;;;2.43;2.20;;;23.30;93.80;;;;;;5013360;28;20462;-64
2023/06/06 07:38:47;;;;;;;2.27;2.17;;;24.10;93.10;;;;;;5013069;28;20273;-63
2023/06/06 07:41:12;;;;;;;1.80;1.70;;;25.10;91.60;;;;;;5013317;28;20182;-65
2023/06/06 07:43:38;;;;;;;1.97;1.87;;;26.00;90.10;;;;;;4995982;28;20179;-64
2023/06/06 07:46:04;;;;;;;2.20;2.10;;;26.80;86.60;;;;;;5012932;28;20211;-63
2023/06/06 07:48:30;;;;;;;2.30;2.10;;;27.50;82.90;;;;;;5013662;28;20182;-64
2023/06/06 07:50:55;;;;;;;2.10;2.00;;;28.10;81.60;;;;;;5013546;28;20885;-65
2023/06/06 07:53:21;;;;;;;3.20;3.00;;;28.80;79.60;;;;;;4995605;28;20226;-65
2023/06/06 07:55:47;;;;;;;2.53;2.40;;;29.80;75.70;;;;;;5013348;28;20245;-64
2023/06/06 07:58:13;;;;;;;2.17;2.07;;;30.70;73.90;;;;;;5013196;28;20317;-65
2023/06/06 08:00:44;;;;;;;2.83;2.60;;;31.50;70.90;;;;;;5013524;28;20483;-63
2023/06/06 08:03:11;;;;;;;2.90;2.70;;;32.10;67.80;;;;;;5013429;28;20186;-64
2023/06/06 08:05:38;;;;;;;3.30;2.67;;;32.80;66.20;;;;;;5012769;28;20800;-65
2023/06/06 08:08:05;;;;;;;2.67;2.47;;;33.20;63.40;;;;;;5013269;28;20513;-64
2023/06/06 08:10:32;;;;;;;2.90;2.70;;;33.10;61.50;;;;;;5012981;28;20436;-64
2023/06/06 08:12:59;;;;;;;2.87;2.70;;;33.10;60.80;;;;;;4995556;28;20414;-64
2023/06/06 08:15:25;;;;;;;2.30;2.20;;;33.00;60.20;;;;;;5012896;28;20946;-63
2023/06/06 08:17:50;;;;;;;3.10;2.90;;;33.10;59.60;;;;;;5013180;28;20457;-65
2023/06/06 08:20:16;;;;;;;2.53;2.40;;;33.40;57.50;;;;;;5013372;28;20418;-64
2023/06/06 08:22:50;;;;;;;3.10;2.90;;;33.90;57.30;;;;;;5013156;28;20175;-64
2023/06/06 08:25:16;;;;;;;2.50;2.30;;;34.10;56.80;;;;;;4978912;28;20210;-65
2023/06/06 08:27:42;;;;;;;2.67;2.47;;;34.20;56.70;;;;;;5013017;28;20904;-64
2023/06/06 08:30:08;;;;;;;2.80;2.60;;;34.30;56.10;;;;;;5013155;28;20403;-63
2023/06/06 08:32:34;;;;;;;2.40;2.20;;;34.20;56.60;;;;;;5013250;28;20441;-64
2023/06/06 08:35:03;;;;;;;2.40;2.30;;;33.80;56.40;;;;;;5012652;28;20454;-64
2023/06/06 08:37:29;;;;;;;2.57;2.40;;;33.70;56.30;;;;;;5012807;28;20273;-62
2023/06/06 08:39:54;;;;;;;2.40;2.30;;;33.40;56.40;;;;;;4995424;28;20421;-64
2023/06/06 08:42:22;;;;;;;2.57;2.37;;;33.40;55.70;;;;;;5013161;28;20388;-64
2023/06/06 08:44:49;;;;;;;2.13;2.03;;;33.40;55.40;;;;;;5015669;28;20205;-65
2023/06/06 08:47:16;;;;;;;2.00;1.90;;;33.60;54.40;;;;;;5016549;28;20435;-64
2023/06/06 08:49:43;;;;;;;2.60;2.40;;;34.10;54.30;;;;;;5016327;28;20763;-64
2023/06/06 08:52:09;;;;;;;2.30;2.20;;;34.50;53.90;;;;;;5016353;28;20778;-64
2023/06/06 08:54:36;;;;;;;2.50;2.33;;;34.60;52.40;;;;;;5015932;28;20771;-64
2023/06/06 08:57:07;;;;;;;2.80;2.60;;;34.40;52.90;;;;;;5016204;28;20483;-65
2023/06/06 08:59:36;;;;;;;2.40;2.30;;;34.50;52.90;;;;;;5016462;28;20388;-62
2023/06/06 09:02:05;;;;;;;3.17;2.97;;;34.70;51.00;;;;;;5016057;28;20420;-64
2023/06/06 09:04:31;;;;;;;2.53;2.33;;;34.00;51.50;;;;;;5015697;28;20482;-64
2023/06/06 09:07:00;;;;;;;1.87;1.77;;;33.60;52.20;;;;;;5015645;28;20563;-64
2023/06/06 09:09:27;;;;;;;2.53;2.33;;;33.30;52.70;;;;;;5015721;28;20489;-64
2023/06/06 09:11:52;;;;;;;2.10;2.00;;;33.20;51.80;;;;;;5016195;28;20753;-64
2023/06/06 09:14:18;;;;;;;2.40;2.30;;;33.30;52.90;;;;;;5015486;28;20441;-66
2023/06/06 09:16:44;;;;;;;2.23;2.03;;;33.40;51.70;;;;;;5015977;28;20237;-63
2023/06/06 09:19:10;;;;;;;2.10;2.00;;;33.20;51.80;;;;;;5015971;28;20222;-64
2023/06/06 09:21:36;;;;;;;2.20;2.10;;;33.30;52.10;;;;;;5016045;28;20420;-64
2023/06/06 09:24:02;;;;;;;2.47;2.30;;;33.40;51.40;;;;;;5014832;28;20668;-64
2023/06/06 09:26:28;;;;;;;2.70;2.50;;;33.70;51.10;;;;;;5015268;28;20700;-64
2023/06/06 09:28:55;;;;;;;2.50;2.40;;;34.10;50.50;;;;;;5015883;28;20182;-64
2023/06/06 09:31:37;;;;;;;2.77;2.60;;;34.20;50.30;;;;;;5015708;28;20406;-64
2023/06/06 09:34:03;;;;;;;2.37;2.27;;;33.60;50.40;;;;;;5014910;28;20422;-65
2023/06/06 09:36:29;;;;;;;2.60;2.40;;;33.10;51.40;;;;;;5015775;28;20415;-65
2023/06/06 09:39:16;;;;;;;2.67;2.47;;;33.30;52.40;;;;;;4997932;28;20423;-65
2023/06/06 09:41:45;;;;;;;3.27;3.10;;;33.90;52.50;;;;;;5015585;28;20410;-64
2023/06/06 09:44:21;;;;;;;2.90;2.70;;;34.20;51.30;;;;;;5014967;28;20418;-64
2023/06/06 09:47:08;;;;;;;3.00;2.80;;;34.30;51.60;;;;;;5015413;28;20402;-65
2023/06/06 09:49:34;;;;;;;2.90;2.70;;;34.30;50.80;;;;;;5014470;28;20426;-65
2023/06/06 09:51:59;;;;;;;3.07;2.87;;;34.60;50.50;;;;;;5015395;28;20414;-66
2023/06/06 09:54:25;;;;;;;2.63;2.43;;;34.70;50.60;;;;;;5014475;28;20191;-64
2023/06/06 09:56:52;;;;;;;2.57;2.47;;;34.70;50.50;;;;;;4997301;28;20199;-63
2023/06/06 09:59:20;;;;;;;2.63;2.43;;;34.60;50.40;;;;;;5015013;28;20179;-64
2023/06/06 10:01:50;;;;;;;3.33;3.03;;;33.90;51.40;;;;;;5015185;28;20414;-64
2023/06/06 10:04:17;;;;;;;2.17;2.07;;;33.80;52.10;;;;;;5014243;28;20935;-64
2023/06/06 10:06:46;;;;;;;2.53;2.33;;;33.60;52.60;;;;;;4997535;28;20397;-64
2023/06/06 10:09:13;;;;;;;2.50;2.40;;;33.80;52.60;;;;;;5014864;28;20497;-64
2023/06/06 10:11:39;;;;;;;2.67;2.57;;;34.00;52.70;;;;;;5015005;28;20768;-64
2023/06/06 10:14:09;;;;;;;2.77;2.60;;;34.60;53.40;;;;;;4996546;28;20839;-65
2023/06/06 10:16:35;;;;;;;3.27;3.07;;;35.20;52.40;;;;;;5014720;28;20399;-64
2023/06/06 10:19:02;;;;;;;4.33;4.00;;;35.50;51.80;;;;;;5014669;28;20454;-65
2023/06/06 10:21:30;;;;;;;3.27;3.07;;;35.80;51.10;;;;;;5014741;28;20398;-64
2023/06/06 10:23:56;;;;;;;3.03;2.83;;;35.80;49.70;;;;;;5014267;28;20846;-65
2023/06/06 10:26:58;;;;;;;2.97;2.77;;;35.30;49.30;;;;;;5014465;28;20432;-63
2023/06/06 10:29:47;;;;;;;2.93;2.73;;;34.70;50.50;;;;;;4983382;28;20248;-64
2023/06/06 10:32:17;;;;;;;2.97;2.67;;;34.20;52.10;;;;;;5014355;28;20430;-63
2023/06/06 10:34:48;;;;;;;2.67;2.57;;;33.90;50.60;;;;;;4996480;28;20556;-64
2023/06/06 10:37:18;;;;;;;2.70;2.50;;;33.50;51.70;;;;;;4997384;28;20405;-63
2023/06/06 10:39:47;;;;;;;2.90;2.70;;;33.40;51.20;;;;;;5014512;28;20409;-66
2023/06/06 10:42:14;;;;;;;2.57;2.37;;;33.30;51.30;;;;;;5014074;28;20932;-63
2023/06/06 10:44:46;;;;;;;2.83;2.63;;;33.10;51.10;;;;;;5013913;28;20418;-63
2023/06/06 10:47:23;;;;;;;2.27;2.10;;;33.00;51.80;;;;;;5013923;28;20420;-64
2023/06/06 10:50:11;;;;;;;2.57;2.37;;;32.60;52.00;;;;;;5014134;28;20903;-63
2023/06/06 10:52:59;;;;;;;2.77;2.50;;;32.50;52.40;;;;;;5014201;28;20380;-64
2023/06/06 10:55:24;;;;;;;3.53;2.67;;;32.40;51.40;;;;;;5013889;28;20429;-64
2023/06/06 10:57:55;;;;;;;2.87;2.67;;;32.50;51.70;;;;;;5013936;28;20388;-65
2023/06/06 11:00:23;;;;;;;2.57;2.37;;;32.60;51.70;;;;;;5013908;28;20183;-64
2023/06/06 11:02:49;;;;;;;3.00;2.67;;;32.20;52.00;;;;;;5013891;28;20391;-64
2023/06/06 11:05:15;;;;;;;2.60;2.50;;;31.60;52.50;;;;;;5013350;28;20837;-64
2023/06/06 11:07:40;;;;;;;3.27;3.07;;;30.90;52.40;;;;;;5013708;28;20218;-65
2023/06/06 11:10:06;;;;;;;2.90;2.70;;;30.40;52.50;;;;;;5013938;28;20791;-64
2023/06/06 11:12:32;;;;;;;2.80;2.60;;;29.90;53.50;;;;;;5014025;28;20175;-64
2023/06/06 11:15:05;;;;;;;3.10;2.40;;;29.50;54.00;;;;;;4995534;28;20415;-64
2023/06/06 11:17:46;;;;;;;3.53;3.30;;;29.00;55.30;;;;;;4995817;28;20851;-64
2023/06/06 11:20:22;;;;;;;2.80;2.60;;;28.50;56.10;;;;;;5013646;28;20419;-64
2023/06/06 11:23:01;;;;;;;2.80;2.60;;;28.10;56.30;;;;;;5014120;28;20380;-64
2023/06/06 11:25:32;;;;;;;2.90;2.70;;;27.90;56.50;;;;;;5013327;28;20404;-65
2023/06/06 11:27:58;;;;;;;3.17;2.97;;;27.40;56.80;;;;;;5013653;28;20435;-64
2023/06/06 11:30:29;;;;;;;3.13;2.67;;;27.10;57.60;;;;;;5013374;28;20424;-64
2023/06/06 11:32:55;;;;;;;2.43;2.23;;;26.80;58.10;;;;;;5013824;28;20405;-64
2023/06/06 11:35:21;;;;;;;2.80;2.60;;;26.60;58.80;;;;;;5013354;28;20934;-62
2023/06/06 11:37:47;;;;;;;2.30;2.10;;;26.30;58.30;;;;;;5013655;28;20175;-63
2023/06/06 11:40:14;;;;;;;3.00;2.80;;;25.90;59.20;;;;;;5013656;28;20382;-62
2023/06/06 11:42:44;;;;;;;2.40;2.20;;;25.70;58.90;;;;;;5013123;28;20429;-63
2023/06/06 11:45:17;;;;;;;2.70;2.50;;;25.40;59.80;;;;;;5013318;28;20448;-63
2023/06/06 11:47:43;;;;;;;2.63;2.40;;;25.30;60.90;;;;;;5013646;28;20811;-66
2023/06/06 11:50:10;;;;;;;2.73;2.53;;;25.20;61.80;;;;;;5013681;28;20821;-64
2023/06/06 11:52:44;;;;;;;2.37;2.17;;;25.20;62.60;;;;;;5013297;28;20716;-64
2023/06/06 11:55:10;;;;;;;2.83;2.63;;;25.30;61.60;;;;;;5012774;28;20437;-64
2023/06/06 11:57:35;;;;;;;2.73;2.53;;;25.40;60.40;;;;;;5013494;28;20422;-64
2023/06/06 12:00:13;;;;;;;1.70;1.60;;;25.40;59.30;;;;;;5013286;28;20210;-64
2023/06/06 12:02:39;;;;;;;3.20;3.00;;;25.30;58.70;;;;;;5013108;28;20544;-64
2023/06/06 12:05:05;;;;;;;2.00;1.90;;;25.20;59.20;;;;;;4995260;28;20438;-63
2023/06/06 12:07:31;;;;;;;2.60;2.40;;;25.20;59.60;;;;;;5013224;28;20443;-63
2023/06/06 12:09:58;;;;;;;2.80;2.60;;;25.10;58.90;;;;;;5013214;28;20274;-64
2023/06/06 12:12:24;;;;;;;2.33;2.23;;;24.90;58.80;;;;;;5013461;28;20452;-64
2023/06/06 12:14:59;;;;;;;2.57;2.33;;;24.70;59.50;;;;;;5012781;28;21008;-64
2023/06/06 12:17:28;;;;;;;2.57;2.40;;;24.60;59.00;;;;;;5013247;28;20308;-64
2023/06/06 12:19:55;;;;;;;2.63;2.53;;;24.60;59.20;;;;;;5016506;28;20425;-64
2023/06/06 12:22:32;;;;;;;3.40;2.23;;;24.50;59.70;;;;;;5016896;28;20422;-64
2023/06/06 12:24:57;;;;;;;2.13;2.03;;;24.70;60.70;;;;;;5016304;28;20433;-64
2023/06/06 12:27:33;;;;;;;5.63;3.13;;;24.80;60.20;;;;;;5017019;28;20435;-64
2023/06/06 12:30:00;;;;;;;2.20;2.10;;;25.00;59.90;;;;;;5016404;28;20506;-62
2023/06/06 12:32:26;;;;;;;5.03;3.90;;;25.00;59.70;;;;;;5016790;28;20505;-62
2023/06/06 12:35:02;;;;;;;2.80;2.60;;;25.10;62.60;;;;;;5016141;28;20433;-63
2023/06/06 12:37:45;;;;;;;2.73;2.57;;;25.20;61.60;;;;;;5016836;28;20393;-63
2023/06/06 12:40:23;;;;;;;2.70;2.50;;;25.10;61.10;;;;;;5016770;28;20413;-64
2023/06/06 12:43:00;;;;;;;3.10;2.50;;;25.00;61.10;;;;;;5016418;28;20427;-64
2023/06/06 12:45:27;;;;;;;3.30;3.00;;;24.70;61.10;;;;;;5015945;28;20431;-62
2023/06/06 12:47:58;;;;;;;2.93;2.77;;;24.60;62.10;;;;;;5016351;28;20439;-63
2023/06/06 12:50:24;;;;;;;2.90;2.70;;;24.60;61.10;;;;;;5016554;28;20488;-62
2023/06/06 12:52:50;;;;;;;2.53;2.37;;;24.80;60.50;;;;;;5016649;28;20426;-63
2023/06/06 12:55:17;;;;;;;1.97;1.87;;;25.00;59.70;;;;;;5015835;28;20264;-62
2023/06/06 12:57:47;;;;;;;2.27;2.07;;;25.20;60.80;;;;;;5015949;28;20427;-62
2023/06/06 13:00:15;;;;;;;2.83;2.53;;;25.30;58.60;;;;;;5016230;28;20836;-63
2023/06/06 13:02:42;;;;;;;2.30;2.20;;;25.40;58.10;;;;;;5016239;28;20384;-63
2023/06/06 13:05:08;;;;;;;2.00;1.90;;;25.40;58.20;;;;;;5015769;28;20455;-64
2023/06/06 13:07:34;;;;;;;2.83;2.47;;;25.50;59.10;;;;;;5015972;28;20469;-63
2023/06/06 13:10:01;;;;;;;2.43;2.23;;;25.50;59.20;;;;;;5016132;28;20405;-63
2023/06/06 13:12:27;;;;;;;2.40;2.30;;;25.40;59.80;;;;;;5015792;28;20414;-63
2023/06/06 13:14:56;;;;;;;2.57;2.10;;;25.40;59.60;;;;;;5015434;28;20875;-63
2023/06/06 13:17:22;;;;;;;2.50;2.30;;;25.40;59.80;;;;;;5016075;28;20421;-63
2023/06/06 13:19:51;;;;;;;2.13;2.03;;;25.30;60.40;;;;;;5015918;28;20404;-64
2023/06/06 13:22:17;;;;;;;2.30;2.20;;;25.20;60.50;;;;;;5016050;28;20780;-66
2023/06/06 13:24:43;;;;;;;2.33;2.20;;;25.10;62.30;;;;;;5015403;28;20433;-63
2023/06/06 13:27:10;;;;;;;2.40;2.20;;;25.10;61.70;;;;;;5015370;28;20462;-63
2023/06/06 13:29:36;;;;;;;2.60;2.40;;;25.30;62.10;;;;;;4997183;28;20175;-63
2023/06/06 13:32:03;;;;;;;2.60;2.40;;;25.60;59.70;;;;;;5015614;28;20982;-63
2023/06/06 13:34:29;;;;;;;2.27;2.17;;;25.80;59.00;;;;;;5015316;28;20454;-63
2023/06/06 13:36:55;;;;;;;2.37;2.17;;;25.80;59.00;;;;;;5015419;28;20402;-64
2023/06/06 13:39:21;;;;;;;2.20;2.07;;;25.70;59.20;;;;;;5015366;28;20402;-63
2023/06/06 13:41:47;;;;;;;3.27;3.03;;;25.60;59.60;;;;;;5015306;28;20174;-64
2023/06/06 13:44:21;;;;;;;2.00;1.90;;;25.60;59.50;;;;;;4997187;28;20186;-63
2023/06/06 13:46:47;;;;;;;2.50;2.30;;;25.50;59.30;;;;;;5003023;28;20414;-63
2023/06/06 13:49:13;;;;;;;4.73;2.37;;;25.40;58.60;;;;;;5016670;28;20405;-64
2023/06/06 13:51:42;;;;;;;2.77;2.57;;;25.30;58.60;;;;;;5017025;28;20202;-63
2023/06/06 13:54:09;;;;;;;1.97;1.87;;;25.30;58.50;;;;;;5016667;28;20417;-63
2023/06/06 13:56:35;;;;;;;2.27;2.00;;;25.30;58.50;;;;;;5017341;28;20418;-63
2023/06/06 13:59:02;;;;;;;2.80;2.60;;;25.30;57.90;;;;;;5017655;28;20424;-63
2023/06/06 14:01:29;;;;;;;2.00;1.90;;;25.30;57.60;;;;;;5016647;28;20912;-63
2023/06/06 14:03:55;;;;;;;2.23;2.07;;;25.30;58.50;;;;;;5014726;28;20895;-64
2023/06/06 14:06:21;;;;;;;2.20;2.10;;;25.40;58.30;;;;;;5014891;28;20568;-63
2023/06/06 14:08:46;;;;;;;2.27;1.73;;;25.40;58.60;;;;;;5015531;28;20474;-63
2023/06/06 14:11:14;;;;;;;2.50;2.20;;;25.40;58.70;;;;;;5014670;28;20651;-63
2023/06/06 14:13:40;;;;;;;2.17;2.07;;;25.30;58.50;;;;;;4996808;28;20174;-64
2023/06/06 14:16:06;;;;;;;2.17;2.00;;;25.30;58.90;;;;;;5014876;28;20440;-64
2023/06/06 14:18:32;;;;;;;3.30;2.93;;;25.30;58.60;;;;;;5014970;28;20409;-64
2023/06/06 14:23:43;;;;;;;2.33;2.23;;;25.30;57.90;;;;;;5014550;28;20420;-64
2023/06/06 14:26:08;;;;;;;2.47;2.27;;;25.20;58.60;;;;;;5014294;28;20985;-64
2023/06/06 14:28:34;;;;;;;2.33;2.13;;;25.10;58.60;;;;;;4997285;28;20459;-64
2023/06/06 14:31:00;;;;;;;2.47;2.27;;;25.10;58.10;;;;;;5014789;28;20178;-64
2023/06/06 14:33:26;;;;;;;2.20;2.10;;;25.00;58.20;;;;;;5014050;28;20205;-62
2023/06/06 14:35:52;;;;;;;2.10;2.00;;;25.00;58.70;;;;;;5014274;28;20673;-62
2023/06/06 14:38:18;;;;;;;1.90;1.80;;;24.90;57.60;;;;;;5014586;28;21001;-64
2023/06/06 14:40:43;;;;;;;2.00;1.90;;;24.80;57.30;;;;;;5013869;28;20446;-64
2023/06/06 14:43:09;;;;;;;2.03;1.90;;;24.90;57.20;;;;;;5014423;28;20700;-64
2023/06/06 14:45:35;;;;;;;2.13;2.03;;;24.90;56.40;;;;;;5014045;28;20190;-64
2023/06/06 14:48:01;;;;;;;1.93;1.80;;;24.90;56.00;;;;;;5014029;28;20253;-64
2023/06/06 14:50:26;;;;;;;2.30;2.10;;;24.80;56.30;;;;;;5014320;28;20410;-64
2023/06/06 14:52:52;;;;;;;2.13;2.03;;;24.80;57.50;;;;;;5014100;28;20561;-64
2023/06/06 14:55:18;;;;;;;3.33;2.40;;;24.90;57.30;;;;;;5013683;28;20209;-64
2023/06/06 14:57:43;;;;;;;1.80;1.70;;;24.90;57.30;;;;;;5014170;28;20514;-64
2023/06/06 15:00:10;;;;;;;1.93;1.83;;;24.90;57.40;;;;;;5014090;28;20526;-64
2023/06/06 15:02:35;;;;;;;2.30;2.20;;;24.80;57.50;;;;;;4996481;28;20186;-64
2023/06/06 15:05:01;;;;;;;1.73;1.63;;;24.70;57.30;;;;;;4995773;28;20451;-64
2023/06/06 15:07:27;;;;;;;1.80;1.70;;;24.60;57.30;;;;;;5013817;28;20583;-63
2023/06/06 15:09:54;;;;;;;1.97;1.87;;;24.50;57.40;;;;;;5013413;28;20414;-64
2023/06/06 15:12:20;;;;;;;2.43;2.23;;;24.30;57.80;;;;;;4996081;28;20182;-65
2023/06/06 15:14:46;;;;;;;1.90;1.80;;;24.20;58.40;;;;;;5013435;28;20792;-64
2023/06/06 15:17:11;;;;;;;2.10;1.93;;;24.20;58.80;;;;;;5013771;28;20178;-63
2023/06/06 15:19:40;;;;;;;2.20;2.10;;;24.30;58.50;;;;;;5013918;28;20182;-64
2023/06/06 15:22:07;;;;;;;2.87;2.67;;;24.30;57.90;;;;;;5013875;28;20265;-64
2023/06/06 15:24:33;;;;;;;2.00;1.90;;;24.20;57.50;;;;;;5012673;28;20507;-64
2023/06/06 15:27:00;;;;;;;1.97;1.87;;;24.10;57.40;;;;;;5013542;28;20452;-64
2023/06/06 15:29:27;;;;;;;2.00;1.90;;;24.10;57.10;;;;;;5013765;28;20418;-63
2023/06/06 15:31:53;;;;;;;2.13;2.00;;;24.20;57.50;;;;;;4996045;28;20420;-63
2023/06/06 15:34:19;;;;;;;2.60;2.40;;;24.20;56.80;;;;;;5012978;28;20425;-63
2023/06/06 15:36:45;;;;;;;2.27;2.07;;;24.20;57.20;;;;;;5013343;28;20422;-63
2023/06/06 15:39:11;;;;;;;2.30;2.10;;;24.10;58.10;;;;;;5013691;28;20170;-63
2023/06/06 15:41:36;;;;;;;2.07;1.97;;;24.10;58.00;;;;;;5013549;28;20398;-63
2023/06/06 15:44:02;;;;;;;2.23;2.10;;;24.10;57.90;;;;;;5013112;28;20177;-63
2023/06/06 15:46:27;;;;;;;2.07;1.97;;;24.10;58.50;;;;;;5013654;28;20178;-63
2023/06/06 15:48:53;;;;;;;1.83;1.73;;;24.20;58.40;;;;;;5013558;28;20218;-63
2023/06/06 15:51:19;;;;;;;2.17;2.07;;;24.20;58.70;;;;;;5013322;28;20178;-63
2023/06/06 15:53:45;;;;;;;1.70;1.60;;;24.30;58.50;;;;;;5014921;28;20178;-63
2023/06/06 15:56:13;;;;;;;2.03;1.93;;;24.40;58.70;;;;;;5017484;28;20191;-62
2023/06/06 15:58:38;;;;;;;2.20;2.10;;;24.40;58.80;;;;;;5017399;28;20418;-62
2023/06/06 16:01:04;;;;;;;1.40;1.40;;;24.50;58.90;;;;;;5017283;28;20392;-63
2023/06/06 16:03:30;;;;;;;2.03;1.93;;;24.50;58.90;;;;;;5016832;28;20277;-64
2023/06/06 16:05:56;;;;;;;1.93;1.83;;;24.40;59.20;;;;;;5016868;28;20260;-63
2023/06/06 16:08:21;;;;;;;1.77;1.67;;;24.40;59.40;;;;;;5016921;28;20209;-63
2023/06/06 16:10:47;;;;;;;1.70;1.60;;;24.40;59.10;;;;;;5017168;28;20181;-63
2023/06/06 16:13:13;;;;;;;2.60;2.40;;;24.30;59.10;;;;;;5017053;28;20172;-63
2023/06/06 16:15:39;;;;;;;2.83;2.63;;;24.30;59.10;;;;;;5016435;28;20198;-63
2023/06/06 16:18:05;;;;;;;1.93;1.83;;;24.30;59.40;;;;;;5017040;28;20768;-62
2023/06/06 16:20:31;;;;;;;2.07;1.97;;;24.30;59.90;;;;;;5017111;28;20418;-62
2023/06/06 16:22:56;;;;;;;2.47;1.77;;;24.30;59.60;;;;;;5016449;28;20179;-62
2023/06/06 16:25:22;;;;;;;2.33;1.90;;;24.20;59.50;;;;;;5016399;28;20676;-64
2023/06/06 16:27:47;;;;;;;2.10;2.00;;;24.10;59.80;;;;;;5016795;28;20194;-63
2023/06/06 16:30:14;;;;;;;1.87;1.77;;;24.10;60.20;;;;;;5016709;28;20226;-63
2023/06/06 16:32:40;;;;;;;1.80;1.70;;;24.10;60.10;;;;;;5016788;28;20207;-63
2023/06/06 16:35:07;;;;;;;2.80;2.70;;;24.00;59.60;;;;;;5016503;28;20504;-63
2023/06/06 16:37:33;;;;;;;2.30;2.20;;;24.00;60.00;;;;;;5016345;28;20429;-63
2023/06/06 16:39:58;;;;;;;2.07;1.97;;;23.90;60.00;;;;;;5016779;28;20518;-63
2023/06/06 16:42:24;;;;;;;1.80;1.70;;;23.90;60.40;;;;;;5016766;28;20187;-63
2023/06/06 16:44:49;;;;;;;2.00;1.90;;;23.80;60.60;;;;;;5016066;28;20190;-63
2023/06/06 16:47:17;;;;;;;2.00;1.90;;;23.80;60.60;;;;;;5016982;28;20257;-63
2023/06/06 16:49:43;;;;;;;1.90;1.80;;;23.80;60.90;;;;;;5016192;28;20229;-62
2023/06/06 16:52:09;;;;;;;1.77;1.67;;;23.90;64.90;;;;;;5016347;28;20925;-62
2023/06/06 16:54:36;;;;;;;1.63;1.53;;;23.70;66.10;;;;;;5015789;28;20421;-62
2023/06/06 16:57:02;;;;;;;3.10;2.57;;;23.60;67.20;;;;;;5016283;28;20560;-63